createdAt,value
2023-01-29T00:02:24.322Z,99479.17
2023-01-29T00:04:51.201Z,99480.30
2023-01-29T00:07:17.937Z,99481.94
2023-01-29T00:09:44.777Z,99484.35
2023-01-29T00:12:11.956Z,99479.31
2023-01-29T00:14:38.792Z,99486.75
2023-01-29T00:17:05.747Z,99487.65
2023-01-29T00:19:32.674Z,99489.16
2023-01-29T00:21:59.389Z,99486.27
2023-01-29T00:24:26.324Z,99486.02
2023-01-29T00:26:53.199Z,99488.38
2023-01-29T00:29:20.234Z,99491.64
2023-01-29T00:31:47.566Z,99497.08
2023-01-29T00:34:14.552Z,99503.57
2023-01-29T00:36:41.593Z,99511.86
2023-01-29T00:39:11.143Z,99507.41
2023-01-29T00:41:56.948Z,99510.13
2023-01-29T00:44:42.459Z,99513.80
2023-01-29T00:47:29.746Z,99513.85
2023-01-29T00:49:56.997Z,99507.61
2023-01-29T00:52:24.284Z,99506.63
2023-01-29T00:54:55.001Z,99511.58
2023-01-29T00:57:31.302Z,99512.09
2023-01-29T00:59:59.299Z,99512.65
2023-01-29T01:02:44.993Z,99512.45
2023-01-29T01:05:14.631Z,99510.30
2023-01-29T01:07:41.828Z,99511.91
2023-01-29T01:10:22.731Z,99513.84
2023-01-29T01:12:51.575Z,99517.41
2023-01-29T01:15:19.085Z,99522.52
2023-01-29T01:17:46.295Z,99526.98
2023-01-29T01:20:14.039Z,99530.78
2023-01-29T01:22:41.885Z,99527.27
2023-01-29T01:25:09.645Z,99531.30
2023-01-29T01:27:41.432Z,99531.86
2023-01-29T01:30:13.033Z,99531.65
2023-01-29T01:32:40.564Z,99527.36
2023-01-29T01:35:08.128Z,99529.73
2023-01-29T01:37:38.165Z,99526.35
2023-01-29T01:40:12.929Z,99523.07
2023-01-29T01:42:40.685Z,99517.63
2023-01-29T01:45:10.565Z,99520.26
2023-01-29T01:47:40.767Z,99518.52
2023-01-29T01:50:14.241Z,99516.34
2023-01-29T01:52:44.491Z,99513.33
2023-01-29T01:55:13.765Z,99512.35
2023-01-29T01:57:42.568Z,99513.39
2023-01-29T02:00:10.767Z,99512.65
2023-01-29T02:02:58.173Z,99511.62
2023-01-29T02:05:43.830Z,99510.02
2023-01-29T02:08:29.645Z,99506.89
2023-01-29T02:10:56.887Z,99509.19
2023-01-29T02:13:24.124Z,99499.81
2023-01-29T02:15:50.969Z,99495.36
2023-01-29T02:18:19.566Z,99499.11
2023-01-29T02:20:57.766Z,99494.81
2023-01-29T02:23:57.032Z,99493.65
2023-01-29T02:26:28.281Z,99484.30
2023-01-29T02:29:20.326Z,99488.75
2023-01-29T02:31:51.396Z,99487.55
2023-01-29T02:34:18.325Z,99483.19
2023-01-29T02:36:54.758Z,99475.88
2023-01-29T02:39:30.325Z,99468.27
2023-01-29T02:42:00.546Z,99464.11
2023-01-29T02:44:33.443Z,99464.40
2023-01-29T02:47:11.445Z,99464.14
2023-01-29T02:49:43.403Z,99460.58
2023-01-29T02:52:15.713Z,99469.73
2023-01-29T02:54:45.763Z,99473.80
2023-01-29T02:57:23.565Z,99470.89
2023-01-29T02:59:59.723Z,99473.44
2023-01-29T03:02:31.397Z,99480.78
2023-01-29T03:05:01.608Z,99486.77
2023-01-29T03:07:46.723Z,99488.96
2023-01-29T03:10:20.557Z,99494.22
2023-01-29T03:12:50.208Z,99498.42
2023-01-29T03:15:19.457Z,99493.92
2023-01-29T03:17:46.198Z,99494.83
2023-01-29T03:20:17.807Z,99496.39
2023-01-29T03:22:47.291Z,99490.94
2023-01-29T03:25:34.692Z,99497.38
2023-01-29T03:28:22.299Z,99499.61
2023-01-29T03:31:11.599Z,99510.27
2023-01-29T03:33:44.659Z,99512.52
2023-01-29T03:36:21.644Z,99509.17
2023-01-29T03:38:48.484Z,99509.87
2023-01-29T03:41:23.333Z,99511.13
2023-01-29T03:43:55.364Z,99504.27
2023-01-29T03:46:29.690Z,99503.75
2023-01-29T03:49:01.915Z,99500.45
2023-01-29T03:51:32.590Z,99494.91
2023-01-29T03:54:06.150Z,99493.95
2023-01-29T03:56:32.914Z,99489.23
2023-01-29T03:59:02.755Z,99490.42
2023-01-29T04:01:32.351Z,99486.96
2023-01-29T04:03:59.218Z,99482.50
2023-01-29T04:06:29.501Z,99474.98
2023-01-29T04:08:59.230Z,99472.59
2023-01-29T04:11:27.771Z,99466.55
2023-01-29T04:13:54.554Z,99465.89
2023-01-29T04:16:25.320Z,99464.98
2023-01-29T04:18:52.867Z,99472.21
2023-01-29T04:21:19.676Z,99469.61
2023-01-29T04:23:46.580Z,99465.52
2023-01-29T04:26:34.349Z,99457.69
2023-01-29T04:29:16.957Z,99449.80
2023-01-29T04:32:01.509Z,99444.00
2023-01-29T04:34:29.136Z,99439.11
2023-01-29T04:37:11.242Z,99435.98
2023-01-29T04:39:49.075Z,99437.35
2023-01-29T04:42:39.549Z,99428.66
2023-01-29T04:45:16.246Z,99419.44
2023-01-29T04:47:50.348Z,99408.61
2023-01-29T04:50:17.398Z,99403.59
2023-01-29T04:52:50.274Z,99402.84
2023-01-29T04:55:36.349Z,99407.86
2023-01-29T04:58:06.090Z,99403.88
2023-01-29T05:00:53.670Z,99400.15
2023-01-29T05:03:22.876Z,99394.50
2023-01-29T05:05:51.283Z,99397.64
2023-01-29T05:08:19.831Z,99392.67
2023-01-29T05:10:48.836Z,99391.79
2023-01-29T05:13:16.257Z,99398.42
2023-01-29T05:15:47.676Z,99397.48
2023-01-29T05:18:14.795Z,99401.60
2023-01-29T05:20:43.670Z,99407.63
2023-01-29T05:23:16.110Z,99409.06
2023-01-29T05:25:43.160Z,99409.39
2023-01-29T05:28:19.539Z,99410.67
2023-01-29T05:30:47.907Z,99411.08
2023-01-29T05:33:16.738Z,99409.42
2023-01-29T05:35:44.099Z,99408.89
2023-01-29T05:38:11.536Z,99414.91
2023-01-29T05:40:38.733Z,99417.80
2023-01-29T05:43:07.017Z,99416.20
2023-01-29T05:45:34.061Z,99415.21
2023-01-29T05:48:01.004Z,99415.73
2023-01-29T05:50:28.252Z,99413.77
2023-01-29T05:52:59.087Z,99408.16
2023-01-29T05:55:25.933Z,99408.52
2023-01-29T05:57:52.767Z,99411.58
2023-01-29T06:00:19.810Z,99415.21
2023-01-29T06:02:46.878Z,99416.45
2023-01-29T06:05:13.738Z,99421.35
2023-01-29T06:07:45.594Z,99424.90
2023-01-29T06:10:13.435Z,99422.30
2023-01-29T06:12:40.900Z,99427.88
2023-01-29T06:15:08.036Z,99428.40
2023-01-29T06:17:34.785Z,99426.83
2023-01-29T06:20:01.621Z,99428.58
2023-01-29T06:22:28.338Z,99422.59
2023-01-29T06:24:55.621Z,99422.61
2023-01-29T06:27:22.661Z,99435.55
2023-01-29T06:29:49.575Z,99441.67
2023-01-29T06:32:16.685Z,99439.04
2023-01-29T06:34:43.781Z,99441.89
2023-01-29T06:37:10.507Z,99442.80
2023-01-29T06:39:37.356Z,99447.91
2023-01-29T06:42:04.290Z,99445.06
2023-01-29T06:44:31.129Z,99440.11
2023-01-29T06:46:57.884Z,99443.45
2023-01-29T06:49:24.814Z,99443.86
2023-01-29T06:51:51.550Z,99439.32
2023-01-29T06:54:18.287Z,99436.39
2023-01-29T06:56:45.021Z,99439.21
2023-01-29T06:59:12.965Z,99441.92
2023-01-29T07:01:41.702Z,99443.52
2023-01-29T07:04:08.524Z,99447.36
2023-01-29T07:06:36.182Z,99448.69
2023-01-29T07:09:05.995Z,99442.41
2023-01-29T07:11:34.375Z,99444.77
2023-01-29T07:14:01.102Z,99446.86
2023-01-29T07:16:27.952Z,99452.77
2023-01-29T07:18:54.912Z,99454.08
2023-01-29T07:21:21.738Z,99457.96
2023-01-29T07:23:48.782Z,99459.25
2023-01-29T07:26:16.230Z,99458.58
2023-01-29T07:28:43.167Z,99463.20
2023-01-29T07:31:12.424Z,99459.49
2023-01-29T07:33:39.312Z,99462.68
2023-01-29T07:36:09.933Z,99468.05
2023-01-29T07:38:36.686Z,99466.48
2023-01-29T07:41:03.833Z,99465.89
2023-01-29T07:43:30.875Z,99465.86
2023-01-29T07:46:01.759Z,99463.35
2023-01-29T07:48:28.646Z,99467.80
2023-01-29T07:50:56.507Z,99470.16
2023-01-29T07:53:23.269Z,99473.61
2023-01-29T07:55:50.097Z,99470.00
2023-01-29T07:58:17.097Z,99469.92
2023-01-29T08:00:44.621Z,99467.94
2023-01-29T08:03:12.864Z,99470.34
2023-01-29T08:05:40.219Z,99472.55
2023-01-29T08:08:07.996Z,99478.79
2023-01-29T08:10:35.633Z,99486.88
2023-01-29T08:13:03.909Z,99491.45
2023-01-29T08:15:31.538Z,99495.17
2023-01-29T08:17:58.659Z,99500.29
2023-01-29T08:20:27.347Z,99503.19
2023-01-29T08:23:01.738Z,99505.83
2023-01-29T08:25:29.494Z,99505.09
2023-01-29T08:27:58.097Z,99496.54
2023-01-29T08:30:29.028Z,99497.02
2023-01-29T08:32:56.153Z,99499.38
2023-01-29T08:35:23.669Z,99497.31
2023-01-29T08:38:00.727Z,99501.04
2023-01-29T08:40:29.026Z,99502.01
2023-01-29T08:43:02.022Z,99507.41
2023-01-29T08:45:30.822Z,99510.17
2023-01-29T08:47:57.794Z,99514.05
2023-01-29T08:50:25.319Z,99511.79
2023-01-29T08:52:52.135Z,99510.66
2023-01-29T08:55:19.214Z,99509.80
2023-01-29T08:57:46.350Z,99512.90
2023-01-29T09:00:13.640Z,99513.85
2023-01-29T09:02:40.661Z,99513.05
2023-01-29T09:05:08.219Z,99509.67
2023-01-29T09:07:35.021Z,99506.46
2023-01-29T09:10:02.410Z,99507.60
2023-01-29T09:12:29.701Z,99502.64
2023-01-29T09:14:56.536Z,99499.55
2023-01-29T09:17:23.836Z,99491.07
2023-01-29T09:19:52.522Z,99488.15
2023-01-29T09:22:19.983Z,99485.13
2023-01-29T09:24:47.226Z,99488.55
2023-01-29T09:27:14.282Z,99488.16
2023-01-29T09:29:41.217Z,99484.59
2023-01-29T09:32:08.266Z,99480.94
2023-01-29T09:34:35.662Z,99480.40
2023-01-29T09:37:03.056Z,99483.41
2023-01-29T09:39:30.138Z,99478.06
2023-01-29T09:42:03.284Z,99480.83
2023-01-29T09:44:36.184Z,99487.52
2023-01-29T09:47:06.587Z,99498.30
2023-01-29T09:49:38.292Z,99500.16
2023-01-29T09:52:17.842Z,99503.06
2023-01-29T09:55:00.000Z,99501.86
2023-01-29T09:57:34.108Z,99492.02
2023-01-29T10:00:01.052Z,99484.46
2023-01-29T10:02:57.516Z,99477.22
2023-01-29T10:05:29.961Z,99471.25
2023-01-29T10:07:58.169Z,99470.14
2023-01-29T10:10:40.435Z,99465.73
2023-01-29T10:13:26.531Z,99459.64
2023-01-29T10:16:05.151Z,99450.44
2023-01-29T10:18:58.458Z,99447.85
2023-01-29T10:21:37.978Z,99445.73
2023-01-29T10:24:16.044Z,99438.90
2023-01-29T10:26:43.107Z,99434.46
2023-01-29T10:29:15.876Z,99424.41
2023-01-29T10:31:43.747Z,99412.52
2023-01-29T10:34:16.826Z,99404.94
2023-01-29T10:36:45.338Z,99399.69
2023-01-29T10:39:16.127Z,99392.79
2023-01-29T10:41:58.937Z,99386.48
2023-01-29T10:44:49.099Z,99375.16
2023-01-29T10:47:25.249Z,99371.23
2023-01-29T10:49:55.012Z,99365.55
2023-01-29T10:52:40.990Z,99363.45
2023-01-29T10:55:26.700Z,99366.02
2023-01-29T10:57:54.018Z,99358.17
2023-01-29T11:00:30.883Z,99360.83
2023-01-29T11:02:58.708Z,99353.50
2023-01-29T11:05:44.189Z,99346.62
2023-01-29T11:08:31.252Z,99344.21
2023-01-29T11:10:58.506Z,99338.31
2023-01-29T11:13:28.137Z,99336.55
2023-01-29T11:15:55.449Z,99333.39
2023-01-29T11:18:22.200Z,99326.69
2023-01-29T11:20:59.791Z,99321.26
2023-01-29T11:23:29.267Z,99320.70
2023-01-29T11:25:57.971Z,99313.37
2023-01-29T11:28:40.085Z,99313.24
2023-01-29T11:31:17.981Z,99303.04
2023-01-29T11:33:45.838Z,99299.11
2023-01-29T11:36:21.266Z,99298.95
2023-01-29T11:38:48.122Z,99297.05
2023-01-29T11:41:19.013Z,99297.44
2023-01-29T11:43:45.816Z,99297.16
2023-01-29T11:46:13.800Z,99284.60
2023-01-29T11:48:41.577Z,99284.40
2023-01-29T11:51:09.080Z,99278.38
2023-01-29T11:53:38.891Z,99280.65
2023-01-29T11:56:13.929Z,99280.66
2023-01-29T11:58:42.140Z,99284.70
2023-01-29T12:01:10.381Z,99274.59
2023-01-29T12:03:40.919Z,99276.76
2023-01-29T12:06:13.327Z,99277.20
2023-01-29T12:08:40.514Z,99281.07
2023-01-29T12:11:09.091Z,99279.84
2023-01-29T12:13:36.728Z,99274.70
2023-01-29T12:16:22.795Z,99271.48
2023-01-29T12:19:16.423Z,99267.48
2023-01-29T12:22:10.139Z,99262.53
2023-01-29T12:24:51.580Z,99264.21
2023-01-29T12:27:26.184Z,99259.46
2023-01-29T12:29:58.208Z,99262.26
2023-01-29T12:32:31.042Z,99265.40
2023-01-29T12:35:11.797Z,99262.39
2023-01-29T12:37:45.352Z,99253.02
2023-01-29T12:40:16.532Z,99246.86
2023-01-29T12:42:46.870Z,99245.88
2023-01-29T12:45:18.026Z,99245.57
2023-01-29T12:47:47.818Z,99240.69
2023-01-29T12:50:21.412Z,99239.66
2023-01-29T12:52:51.177Z,99235.16
2023-01-29T12:55:24.147Z,99232.03
2023-01-29T12:57:51.046Z,99235.54
2023-01-29T13:00:23.019Z,99235.69
2023-01-29T13:02:53.382Z,99229.75
2023-01-29T13:05:26.310Z,99233.08
2023-01-29T13:08:08.472Z,99229.09
2023-01-29T13:10:38.319Z,99228.67
2023-01-29T13:13:28.620Z,99220.37
2023-01-29T13:15:56.783Z,99212.84
2023-01-29T13:18:23.615Z,99209.73
2023-01-29T13:20:51.659Z,99206.77
2023-01-29T13:23:23.043Z,99207.16
2023-01-29T13:25:51.203Z,99204.15
2023-01-29T13:28:20.403Z,99201.92
2023-01-29T13:30:47.779Z,99200.43
2023-01-29T13:33:21.560Z,99199.33
2023-01-29T13:35:49.336Z,99204.12
2023-01-29T13:38:36.436Z,99208.30
2023-01-29T13:41:05.309Z,99207.20
2023-01-29T13:43:36.667Z,99208.67
2023-01-29T13:46:22.199Z,99203.63
2023-01-29T13:48:51.264Z,99198.67
2023-01-29T13:51:21.500Z,99187.14
2023-01-29T13:53:57.580Z,99190.73
2023-01-29T13:56:33.269Z,99188.21
2023-01-29T13:59:01.563Z,99181.40
2023-01-29T14:01:47.161Z,99174.06
2023-01-29T14:04:21.914Z,99170.09
2023-01-29T14:06:50.367Z,99165.91
2023-01-29T14:09:36.213Z,99159.42
2023-01-29T14:12:04.620Z,99157.88
2023-01-29T14:15:10.616Z,99156.84
2023-01-29T14:17:38.539Z,99154.17
2023-01-29T14:20:19.070Z,99160.54
2023-01-29T14:22:54.141Z,99162.77
2023-01-29T14:25:23.420Z,99159.39
2023-01-29T14:27:50.452Z,99161.10
2023-01-29T14:30:19.285Z,99158.33
2023-01-29T14:32:50.220Z,99162.77
2023-01-29T14:35:24.582Z,99164.14
2023-01-29T14:37:53.805Z,99160.06
2023-01-29T14:40:23.016Z,99162.11
2023-01-29T14:42:53.256Z,99166.36
2023-01-29T14:45:23.017Z,99172.41
2023-01-29T14:47:49.849Z,99173.54
2023-01-29T14:50:23.099Z,99172.55
2023-01-29T14:52:52.388Z,99167.73
2023-01-29T14:55:26.315Z,99160.30
2023-01-29T14:57:56.772Z,99159.48
2023-01-29T15:00:27.404Z,99160.46
2023-01-29T15:03:01.993Z,99154.88
2023-01-29T15:05:36.438Z,99156.97
2023-01-29T15:08:16.593Z,99157.73
2023-01-29T15:10:46.307Z,99155.94
2023-01-29T15:13:25.118Z,99156.12
2023-01-29T15:16:14.960Z,99154.62
2023-01-29T15:18:43.424Z,99153.05
2023-01-29T15:21:14.903Z,99160.77
2023-01-29T15:23:42.539Z,99162.10
2023-01-29T15:26:16.642Z,99155.30
2023-01-29T15:28:47.236Z,99148.13
2023-01-29T15:31:18.868Z,99146.35
2023-01-29T15:33:47.112Z,99145.89
2023-01-29T15:36:20.764Z,99143.32
2023-01-29T15:38:47.604Z,99140.56
2023-01-29T15:41:19.431Z,99137.52
2023-01-29T15:43:50.636Z,99135.06
2023-01-29T15:46:20.537Z,99134.16
2023-01-29T15:48:49.349Z,99139.32
2023-01-29T15:51:17.920Z,99145.21
2023-01-29T15:53:48.667Z,99137.10
2023-01-29T15:56:17.832Z,99139.59
2023-01-29T15:58:47.266Z,99134.33
2023-01-29T16:01:14.882Z,99126.74
2023-01-29T16:03:42.546Z,99112.73
2023-01-29T16:06:10.135Z,99110.14
2023-01-29T16:08:39.093Z,99109.62
2023-01-29T16:11:07.231Z,99104.11
2023-01-29T16:13:36.427Z,99098.72
2023-01-29T16:16:08.779Z,99091.65
2023-01-29T16:18:39.496Z,99095.36
2023-01-29T16:21:28.282Z,99094.63
2023-01-29T16:24:23.341Z,99099.32
2023-01-29T16:26:52.218Z,99100.46
2023-01-29T16:29:21.767Z,99094.95
2023-01-29T16:31:50.721Z,99098.19
2023-01-29T16:34:29.344Z,99096.73
2023-01-29T16:36:56.736Z,99095.23
2023-01-29T16:39:24.905Z,99090.26
2023-01-29T16:42:22.180Z,99085.02
2023-01-29T16:45:07.765Z,99086.40
2023-01-29T16:47:39.092Z,99082.31
2023-01-29T16:50:09.361Z,99086.65
2023-01-29T16:52:38.762Z,99091.91
2023-01-29T16:55:16.302Z,99095.52
2023-01-29T16:57:49.316Z,99099.60
2023-01-29T17:00:44.109Z,99101.10
2023-01-29T17:03:13.991Z,99109.33
2023-01-29T17:05:42.512Z,99108.50
2023-01-29T17:08:40.436Z,99104.16
2023-01-29T17:11:14.060Z,99101.55
2023-01-29T17:13:45.742Z,99104.12
2023-01-29T17:16:21.594Z,99108.80
2023-01-29T17:18:48.858Z,99103.06
2023-01-29T17:21:15.852Z,99103.44
2023-01-29T17:23:42.675Z,99105.41
2023-01-29T17:26:12.255Z,99103.78
2023-01-29T17:28:39.523Z,99106.38
2023-01-29T17:31:08.112Z,99105.58
2023-01-29T17:33:36.148Z,99102.73
2023-01-29T17:36:03.171Z,99098.73
2023-01-29T17:38:30.171Z,99097.39
2023-01-29T17:40:59.156Z,99098.05
2023-01-29T17:43:26.466Z,99094.05
2023-01-29T17:45:53.605Z,99090.29
2023-01-29T17:48:25.059Z,99085.91
2023-01-29T17:50:54.147Z,99084.67
2023-01-29T17:53:21.985Z,99082.17
2023-01-29T17:55:49.346Z,99076.33
2023-01-29T17:58:20.570Z,99065.49
2023-01-29T18:00:48.289Z,99059.77
2023-01-29T18:03:15.702Z,99054.65
2023-01-29T18:05:44.251Z,99059.80
2023-01-29T18:08:17.133Z,99052.21
2023-01-29T18:10:44.386Z,99054.95
2023-01-29T18:13:11.637Z,99055.46
2023-01-29T18:15:38.691Z,99053.33
2023-01-29T18:18:06.032Z,99057.70
2023-01-29T18:20:37.009Z,99057.78
2023-01-29T18:23:04.617Z,99063.27
2023-01-29T18:25:31.777Z,99063.02
2023-01-29T18:27:58.822Z,99065.59
2023-01-29T18:30:25.873Z,99065.39
2023-01-29T18:32:53.841Z,99060.45
2023-01-29T18:35:21.411Z,99062.09
2023-01-29T18:37:48.551Z,99056.06
2023-01-29T18:40:17.630Z,99053.72
2023-01-29T18:42:47.753Z,99046.79
2023-01-29T18:45:15.971Z,99043.45
2023-01-29T18:47:43.250Z,99040.44
2023-01-29T18:50:11.176Z,99044.19
2023-01-29T18:52:38.537Z,99041.98
2023-01-29T18:55:05.821Z,99045.58
2023-01-29T18:58:26.248Z,99041.14
2023-01-29T19:00:21.844Z,99044.02
2023-01-29T19:02:48.684Z,99037.23
2023-01-29T19:05:17.463Z,99038.23
2023-01-29T19:07:44.530Z,99039.71
2023-01-29T19:10:13.092Z,99034.68
2023-01-29T19:12:43.179Z,99034.98
2023-01-29T19:15:10.266Z,99027.17
2023-01-29T19:17:37.329Z,99028.63
2023-01-29T19:20:05.296Z,99026.65
2023-01-29T19:22:32.729Z,99026.45
2023-01-29T19:24:59.781Z,99015.92
2023-01-29T19:27:30.853Z,99014.48
2023-01-29T19:29:58.702Z,99013.92
2023-01-29T19:32:29.411Z,99011.11
2023-01-29T19:34:58.052Z,99010.56
2023-01-29T19:37:25.849Z,99005.84
2023-01-29T19:39:54.220Z,99004.63
2023-01-29T19:42:21.479Z,99006.45
2023-01-29T19:44:48.732Z,99005.31
2023-01-29T19:47:15.796Z,99002.69
2023-01-29T19:49:42.933Z,99009.59
2023-01-29T19:52:15.333Z,99010.77
2023-01-29T19:54:49.300Z,99009.38
2023-01-29T19:57:16.347Z,99007.67
2023-01-29T19:59:45.665Z,99008.02
2023-01-29T20:02:12.961Z,99005.86
2023-01-29T20:04:40.038Z,99004.27
2023-01-29T20:07:07.089Z,98997.22
2023-01-29T20:09:34.371Z,98996.66
2023-01-29T20:12:01.684Z,98995.06
2023-01-29T20:14:28.735Z,98990.91
2023-01-29T20:16:55.469Z,98986.63
2023-01-29T20:19:22.783Z,98985.37
2023-01-29T20:21:50.213Z,98984.91
2023-01-29T20:24:17.594Z,98985.83
2023-01-29T20:26:44.756Z,98981.73
2023-01-29T20:29:12.345Z,98977.54
2023-01-29T20:31:39.187Z,98978.09
2023-01-29T20:34:06.020Z,98977.48
2023-01-29T20:36:32.955Z,98976.74
2023-01-29T20:39:00.014Z,98984.33
2023-01-29T20:41:27.053Z,98981.53
2023-01-29T20:43:53.969Z,98982.95
2023-01-29T20:46:21.252Z,98983.45
2023-01-29T20:48:49.675Z,98981.04
2023-01-29T20:51:18.156Z,98977.50
2023-01-29T20:53:46.346Z,98968.11
2023-01-29T20:56:14.705Z,98965.54
2023-01-29T20:58:41.720Z,98967.62
2023-01-29T21:01:09.839Z,98962.30
2023-01-29T21:03:37.176Z,98960.99
2023-01-29T21:06:04.264Z,98956.50
2023-01-29T21:08:31.569Z,98951.67
2023-01-29T21:10:58.690Z,98947.11
2023-01-29T21:13:25.799Z,98947.25
2023-01-29T21:15:52.953Z,98941.45
2023-01-29T21:18:19.800Z,98933.79
2023-01-29T21:20:47.043Z,98926.42
2023-01-29T21:23:13.892Z,98918.89
2023-01-29T21:25:41.677Z,98916.51
2023-01-29T21:28:08.591Z,98909.49
2023-01-29T21:30:35.790Z,98905.32
2023-01-29T21:33:03.057Z,98905.69
2023-01-29T21:35:30.030Z,98901.30
2023-01-29T21:37:57.074Z,98898.23
2023-01-29T21:40:27.336Z,98896.10
2023-01-29T21:43:12.674Z,98899.05
2023-01-29T21:45:40.283Z,98891.14
2023-01-29T21:48:07.477Z,98888.90
2023-01-29T21:50:34.731Z,98883.73
2023-01-29T21:53:01.791Z,98882.20
2023-01-29T21:55:28.707Z,98876.61
2023-01-29T21:57:55.761Z,98874.40
2023-01-29T22:00:22.925Z,98872.71
2023-01-29T22:02:51.432Z,98866.08
2023-01-29T22:05:20.175Z,98867.95
2023-01-29T22:07:48.253Z,98864.54
2023-01-29T22:10:16.536Z,98858.56
2023-01-29T22:12:44.833Z,98855.90
2023-01-29T22:15:12.148Z,98851.81
2023-01-29T22:17:41.457Z,98854.29
2023-01-29T22:20:12.488Z,98852.21
2023-01-29T22:22:39.320Z,98842.05
2023-01-29T22:25:06.258Z,98834.67
2023-01-29T22:27:33.910Z,98835.10
2023-01-29T22:30:00.659Z,98831.30
2023-01-29T22:32:27.557Z,98829.55
2023-01-29T22:34:54.506Z,98825.66
2023-01-29T22:37:21.284Z,98821.79
2023-01-29T22:39:48.020Z,98816.70
2023-01-29T22:42:14.768Z,98813.51
2023-01-29T22:44:41.699Z,98809.06
2023-01-29T22:47:08.446Z,98807.92
2023-01-29T22:49:35.277Z,98800.70
2023-01-29T22:52:10.865Z,98796.08
2023-01-29T22:54:38.587Z,98792.10
2023-01-29T22:57:05.941Z,98791.30
2023-01-29T22:59:33.192Z,98785.89
2023-01-29T23:02:00.210Z,98779.16
2023-01-29T23:04:27.153Z,98771.96
2023-01-29T23:06:54.119Z,98765.67
2023-01-29T23:09:21.107Z,98761.47
2023-01-29T23:11:47.999Z,98756.85
2023-01-29T23:14:14.854Z,98757.07
2023-01-29T23:16:42.128Z,98753.52
2023-01-29T23:19:10.310Z,98746.98
2023-01-29T23:21:37.648Z,98741.81
2023-01-29T23:24:06.220Z,98743.48
2023-01-29T23:26:52.496Z,98736.43
2023-01-29T23:29:19.418Z,98732.84
2023-01-29T23:31:46.319Z,98722.52
2023-01-29T23:34:14.362Z,98717.87
2023-01-29T23:36:41.414Z,98716.27
2023-01-29T23:39:08.643Z,98705.81
2023-01-29T23:41:35.795Z,98704.10
2023-01-29T23:44:02.830Z,98694.52
2023-01-29T23:46:29.833Z,98689.83
2023-01-29T23:48:57.168Z,98688.09
2023-01-29T23:51:24.583Z,98688.25
2023-01-29T23:53:51.578Z,98685.46
2023-01-29T23:56:18.612Z,98685.42
2023-01-29T23:58:46.075Z,98675.95
